Time;durP1;ratioP1;P1;durP2;ratioP2;P2;SDS_P1;SDS_P2;PMS_P1;PMS_P2;Temp;Humidity;BMP_temperature;BMP_pressure;BME280_temperature;BME280_humidity;BME280_pressure;Samples;Min_cycle;Max_cycle;Signal;HPM_P1;HPM_P2
2023/05/15 00:01:21;;;;;;;57.65;35.00;;;10.70;99.90;;;;;;4971549;28;20042;-69
2023/05/15 00:03:47;;;;;;;77.25;35.45;;;10.80;99.90;;;;;;4950484;28;210710;-69
2023/05/15 00:06:13;;;;;;;144.02;33.80;;;10.80;99.90;;;;;;5016849;28;20042;-69
2023/05/15 00:08:40;;;;;;;79.32;38.15;;;10.70;99.90;;;;;;4960615;28;207138;-68
2023/05/15 00:11:06;;;;;;;81.75;35.20;;;10.70;99.90;;;;;;4992357;28;20054;-68
2023/05/15 00:13:32;;;;;;;86.72;36.25;;;10.60;99.90;;;;;;4948799;28;207795;-68
2023/05/15 00:15:58;;;;;;;75.10;33.33;;;10.70;99.90;;;;;;5013182;28;20058;-68
2023/05/15 00:18:24;;;;;;;96.15;33.60;;;10.70;99.90;;;;;;4945269;28;207065;-68
2023/05/15 00:20:52;;;;;;;79.80;34.15;;;10.70;99.90;;;;;;5025839;28;20057;-68
2023/05/15 00:23:18;;;;;;;129.80;37.33;;;10.60;99.90;;;;;;4950877;28;214314;-68
2023/05/15 00:25:44;;;;;;;81.32;36.85;;;10.60;99.90;;;;;;5014579;28;20054;-68
2023/05/15 00:28:10;;;;;;;91.80;32.80;;;10.50;99.90;;;;;;4949027;28;210053;-68
2023/05/15 00:30:36;;;;;;;116.50;36.80;;;10.50;99.90;;;;;;5012127;28;20058;-69
2023/05/15 00:33:02;;;;;;;110.68;38.88;;;10.50;99.90;;;;;;4946785;28;208769;-68
2023/05/15 00:35:28;;;;;;;64.57;37.53;;;10.50;99.90;;;;;;5012896;28;20061;-68
2023/05/15 00:37:54;;;;;;;66.30;37.75;;;10.50;99.90;;;;;;4988801;28;20046;-69
2023/05/15 00:40:23;;;;;;;70.38;39.28;;;10.50;99.90;;;;;;4954371;28;263627;-68
2023/05/15 00:42:51;;;;;;;60.03;37.72;;;10.60;99.90;;;;;;4982845;28;20046;-68
2023/05/15 00:45:18;;;;;;;56.55;36.05;;;10.70;99.90;;;;;;4953346;28;209998;-69
2023/05/15 00:47:45;;;;;;;56.70;35.05;;;10.70;99.90;;;;;;5003991;28;20057;-70
2023/05/15 00:50:11;;;;;;;69.20;37.65;;;10.80;99.90;;;;;;4952151;28;207554;-67
2023/05/15 00:52:37;;;;;;;60.65;38.22;;;10.80;99.90;;;;;;4988021;28;20050;-68
2023/05/15 00:55:05;;;;;;;60.30;37.00;;;10.80;99.90;;;;;;4952132;28;207303;-70
2023/05/15 00:57:32;;;;;;;54.00;36.20;;;10.80;99.90;;;;;;4991200;28;20054;-69
2023/05/15 01:00:00;;;;;;;52.85;35.97;;;10.80;99.90;;;;;;4956592;28;221389;-69
2023/05/15 01:02:26;;;;;;;56.17;38.08;;;10.90;99.90;;;;;;4990846;28;20046;-68
2023/05/15 01:04:52;;;;;;;56.33;35.75;;;10.90;99.90;;;;;;4962422;28;212817;-71
2023/05/15 01:07:19;;;;;;;56.42;35.97;;;10.90;99.90;;;;;;5007941;28;20064;-71
2023/05/15 01:09:46;;;;;;;59.15;35.35;;;10.90;99.90;;;;;;4988470;28;206147;-68
2023/05/15 01:12:14;;;;;;;62.63;35.38;;;10.90;99.90;;;;;;5011070;28;20425;-68
2023/05/15 01:14:41;;;;;;;67.78;37.80;;;10.90;99.90;;;;;;4975785;28;210000;-70
2023/05/15 01:17:07;;;;;;;61.60;34.10;;;10.80;99.90;;;;;;5010689;28;20053;-70
2023/05/15 01:19:34;;;;;;;71.15;37.17;;;10.70;99.90;;;;;;4962701;28;210491;-69
2023/05/15 01:22:16;;;;;;;66.40;40.13;;;10.70;99.90;;;;;;4991886;28;20042;-70
2023/05/15 01:25:19;;;;;;;65.22;37.97;;;10.70;99.90;;;;;;4964579;28;210610;-69
2023/05/15 01:27:50;;;;;;;85.25;38.65;;;10.70;99.90;;;;;;4987203;28;20053;-69
2023/05/15 01:30:29;;;;;;;75.18;38.78;;;10.70;99.90;;;;;;4930905;28;206468;-69
2023/05/15 01:33:01;;;;;;;64.78;38.50;;;10.70;99.90;;;;;;4979571;28;213476;-67
2023/05/15 01:35:38;;;;;;;64.18;38.53;;;10.70;99.90;;;;;;4948309;28;206446;-69
2023/05/15 01:38:47;;;;;;;67.57;39.50;;;10.70;99.90;;;;;;4932396;28;221742;-71
2023/05/15 01:41:22;;;;;;;58.38;37.30;;;10.70;99.90;;;;;;4964206;28;20492;-70
2023/05/15 01:44:01;;;;;;;75.65;42.50;;;10.80;99.90;;;;;;4912690;28;211959;-70
2023/05/15 01:46:29;;;;;;;57.70;36.35;;;10.80;99.90;;;;;;4963324;28;20749;-69
2023/05/15 01:48:59;;;;;;;71.93;39.15;;;10.80;99.90;;;;;;4915858;28;207635;-68
2023/05/15 01:51:26;;;;;;;69.32;39.90;;;10.80;99.90;;;;;;4953761;28;20050;-71
2023/05/15 01:53:54;;;;;;;62.88;38.47;;;10.80;99.90;;;;;;4908156;28;148439;-70
2023/05/15 01:56:23;;;;;;;64.40;38.97;;;10.80;99.90;;;;;;4953216;28;20082;-68
2023/05/15 01:58:51;;;;;;;62.55;36.83;;;10.90;99.90;;;;;;4886920;28;199435;-71
2023/05/15 02:01:18;;;;;;;63.35;37.88;;;10.90;99.90;;;;;;4947258;28;20058;-69
2023/05/15 02:03:45;;;;;;;54.28;36.50;;;10.90;99.90;;;;;;4891106;28;207535;-70
2023/05/15 02:06:12;;;;;;;86.75;40.88;;;10.90;99.90;;;;;;4939893;28;20055;-70
2023/05/15 02:08:40;;;;;;;80.93;39.42;;;10.90;99.90;;;;;;4899150;28;207215;-69
2023/05/15 02:11:07;;;;;;;67.38;40.17;;;10.80;99.90;;;;;;4961923;28;20086;-70
2023/05/15 02:13:35;;;;;;;65.18;38.65;;;10.80;99.90;;;;;;4944158;28;205395;-70
2023/05/15 02:16:01;;;;;;;62.78;38.05;;;10.80;99.90;;;;;;5008506;28;20058;-70
2023/05/15 02:18:27;;;;;;;89.38;38.40;;;10.80;99.90;;;;;;4946464;28;206573;-67
2023/05/15 02:20:53;;;;;;;64.72;38.45;;;10.80;99.90;;;;;;5017723;28;20414;-68
2023/05/15 02:23:20;;;;;;;64.80;39.45;;;10.70;99.90;;;;;;4951152;28;211796;-69
2023/05/15 02:26:24;;;;;;;62.70;39.67;;;10.70;99.90;;;;;;5009852;28;20076;-70
2023/05/15 02:28:58;;;;;;;58.58;35.97;;;10.70;99.90;;;;;;4941212;28;208538;-69
2023/05/15 02:31:47;;;;;;;54.33;36.85;;;10.70;99.90;;;;;;5001566;28;20077;-68
2023/05/15 02:34:29;;;;;;;146.77;37.10;;;10.80;99.90;;;;;;4953183;28;207739;-69
2023/05/15 02:36:59;;;;;;;96.20;35.88;;;10.80;99.90;;;;;;5010249;28;20068;-69
2023/05/15 02:39:26;;;;;;;65.45;37.45;;;10.60;99.90;;;;;;4963424;28;208397;-69
2023/05/15 02:41:53;;;;;;;87.70;36.60;;;10.60;99.90;;;;;;4999336;28;20056;-68
2023/05/15 02:44:19;;;;;;;67.82;37.95;;;10.60;99.90;;;;;;4963660;28;213551;-69
2023/05/15 02:46:47;;;;;;;89.75;37.97;;;10.50;99.90;;;;;;4995349;28;20080;-68
2023/05/15 02:49:14;;;;;;;240.52;39.25;;;10.60;99.90;;;;;;4946761;28;212653;-70
2023/05/15 02:51:40;;;;;;;144.77;35.90;;;10.50;99.90;;;;;;4998802;28;20049;-68
2023/05/15 02:54:08;;;;;;;242.40;39.28;;;10.40;99.90;;;;;;4945651;28;209263;-69
2023/05/15 02:56:34;;;;;;;101.35;37.17;;;10.40;99.90;;;;;;4996259;28;20046;-69
2023/05/15 02:59:01;;;;;;;305.52;43.75;;;10.50;99.90;;;;;;4933801;28;223862;-69
2023/05/15 03:01:27;;;;;;;85.03;40.33;;;10.50;99.90;;;;;;5004087;28;20058;-70
2023/05/15 03:03:53;;;;;;;124.38;42.58;;;10.50;99.90;;;;;;4951335;28;212588;-70
2023/05/15 03:06:19;;;;;;;91.57;39.03;;;10.60;99.90;;;;;;5022277;28;20058;-70
2023/05/15 03:08:45;;;;;;;300.50;42.67;;;10.50;99.90;;;;;;4965856;28;20054;-70
2023/05/15 03:11:11;;;;;;;196.25;40.90;;;10.50;99.90;;;;;;5001622;28;20407;-70
2023/05/15 03:13:37;;;;;;;81.68;38.15;;;10.40;99.90;;;;;;4938509;28;213444;-70
2023/05/15 03:16:04;;;;;;;155.77;37.67;;;10.40;99.90;;;;;;5002251;28;20427;-70
2023/05/15 03:18:30;;;;;;;101.57;37.65;;;10.40;99.90;;;;;;4935599;28;207971;-70
2023/05/15 03:20:56;;;;;;;59.75;36.78;;;10.40;99.90;;;;;;5012623;28;20049;-69
2023/05/15 03:23:22;;;;;;;74.05;37.78;;;10.30;99.90;;;;;;4933757;28;216027;-68
2023/05/15 03:25:48;;;;;;;83.13;38.10;;;10.30;99.90;;;;;;5003639;28;20067;-68
2023/05/15 03:28:14;;;;;;;63.75;36.80;;;10.30;99.90;;;;;;4937318;28;209659;-69
2023/05/15 03:30:43;;;;;;;68.38;38.65;;;10.30;99.90;;;;;;5001171;28;20076;-68
2023/05/15 03:33:09;;;;;;;60.55;37.80;;;10.30;99.90;;;;;;4936382;28;212004;-68
2023/05/15 03:35:35;;;;;;;64.60;38.05;;;10.30;99.90;;;;;;5039019;28;20058;-68
2023/05/15 03:38:01;;;;;;;63.75;36.75;;;10.20;99.90;;;;;;4972866;28;211499;-66
2023/05/15 03:40:27;;;;;;;57.22;35.95;;;10.10;99.90;;;;;;4995194;28;20451;-67
2023/05/15 03:42:54;;;;;;;59.20;36.63;;;10.00;99.90;;;;;;5014455;28;20050;-67
2023/05/15 03:45:20;;;;;;;54.55;34.38;;;10.00;99.90;;;;;;4941220;28;208228;-67
2023/05/15 03:47:47;;;;;;;42.28;23.92;;;10.10;99.90;;;;;;4988492;28;20058;-69
2023/05/15 03:50:13;;;;;;;47.30;30.25;;;9.80;99.90;;;;;;4954428;28;206483;-68
2023/05/15 03:52:39;;;;;;;49.30;30.45;;;9.50;99.90;;;;;;4984041;28;20061;-69
2023/05/15 03:55:06;;;;;;;43.53;27.00;;;9.60;99.90;;;;;;4966356;28;206011;-67
2023/05/15 03:57:34;;;;;;;42.30;24.95;;;9.50;99.90;;;;;;4983967;28;20515;-69
2023/05/15 04:00:02;;;;;;;51.47;31.02;;;9.40;99.90;;;;;;4937793;28;207465;-67
2023/05/15 04:02:28;;;;;;;53.13;32.55;;;9.30;99.90;;;;;;5008362;28;20062;-70
2023/05/15 04:04:54;;;;;;;45.47;31.52;;;9.30;99.90;;;;;;4960811;28;207462;-69
2023/05/15 04:07:20;;;;;;;44.80;30.88;;;9.40;99.90;;;;;;4979123;28;20054;-69
2023/05/15 04:09:47;;;;;;;41.28;28.42;;;9.40;99.90;;;;;;4952011;28;207922;-72
2023/05/15 04:12:13;;;;;;;47.80;29.92;;;9.40;99.90;;;;;;5000417;28;20054;-68
2023/05/15 04:14:39;;;;;;;45.15;28.42;;;9.30;99.90;;;;;;4963580;28;211009;-69
2023/05/15 04:17:05;;;;;;;50.85;32.15;;;9.20;99.90;;;;;;4984306;28;20053;-71
2023/05/15 04:19:31;;;;;;;47.25;29.25;;;9.10;99.90;;;;;;4956489;28;207859;-70
2023/05/15 04:21:57;;;;;;;49.03;31.63;;;9.10;99.90;;;;;;4984249;28;20539;-69
2023/05/15 04:24:23;;;;;;;46.15;30.17;;;9.20;99.90;;;;;;4964328;28;207034;-71
2023/05/15 04:26:49;;;;;;;44.15;30.27;;;9.30;99.90;;;;;;5001887;28;20431;-68
2023/05/15 04:29:15;;;;;;;45.13;29.83;;;9.30;99.90;;;;;;4954465;28;210536;-69
2023/05/15 04:31:41;;;;;;;43.78;30.10;;;9.40;99.90;;;;;;4995744;28;20054;-69
2023/05/15 04:34:07;;;;;;;45.22;29.80;;;9.50;99.90;;;;;;4944699;28;209852;-69
2023/05/15 04:36:33;;;;;;;41.97;29.08;;;9.50;99.90;;;;;;5010389;28;20065;-69
2023/05/15 04:39:00;;;;;;;41.28;29.42;;;9.60;99.90;;;;;;4951783;28;207113;-69
2023/05/15 04:41:26;;;;;;;42.10;28.30;;;9.60;99.90;;;;;;4996382;28;20058;-69
2023/05/15 04:43:52;;;;;;;47.83;29.42;;;9.70;99.90;;;;;;4949866;28;210519;-69
2023/05/15 04:46:18;;;;;;;45.40;30.83;;;9.70;99.90;;;;;;5002619;28;20727;-69
2023/05/15 04:48:44;;;;;;;38.40;27.13;;;9.80;99.90;;;;;;4941025;28;209564;-68
2023/05/15 04:51:11;;;;;;;43.33;29.83;;;9.80;99.90;;;;;;5000870;28;20062;-70
2023/05/15 04:53:37;;;;;;;41.92;28.60;;;9.80;99.90;;;;;;4944192;28;206616;-70
2023/05/15 04:56:03;;;;;;;42.75;28.95;;;9.90;99.90;;;;;;5001170;28;20054;-68
2023/05/15 04:58:29;;;;;;;40.90;28.40;;;9.90;99.90;;;;;;4917760;28;214246;-68
2023/05/15 05:00:55;;;;;;;42.88;29.27;;;10.00;99.90;;;;;;5002234;28;20685;-68
2023/05/15 05:03:21;;;;;;;43.45;29.35;;;10.10;99.90;;;;;;4933070;28;209914;-69
2023/05/15 05:05:48;;;;;;;40.53;27.58;;;10.20;99.90;;;;;;5022693;28;20034;-69
2023/05/15 05:08:14;;;;;;;41.43;27.73;;;10.30;99.90;;;;;;4954476;28;213233;-69
2023/05/15 05:10:40;;;;;;;40.15;27.42;;;10.30;99.90;;;;;;5032121;28;20054;-69
2023/05/15 05:13:06;;;;;;;38.20;26.63;;;10.40;99.90;;;;;;4952158;28;208106;-70
2023/05/15 05:15:32;;;;;;;34.38;26.33;;;10.40;99.90;;;;;;5032178;28;20059;-70
2023/05/15 05:17:58;;;;;;;34.25;27.00;;;10.50;99.90;;;;;;4977409;28;208084;-67
2023/05/15 05:20:24;;;;;;;32.30;25.48;;;10.60;99.90;;;;;;4993219;28;79550;-70
2023/05/15 05:22:50;;;;;;;34.58;25.88;;;10.50;99.90;;;;;;4983125;28;20420;-70
2023/05/15 05:25:16;;;;;;;35.05;26.52;;;10.60;99.90;;;;;;4955755;28;207567;-70
2023/05/15 05:27:43;;;;;;;32.63;25.55;;;10.60;99.90;;;;;;5006901;28;20060;-70
2023/05/15 05:30:09;;;;;;;35.08;26.38;;;10.70;99.90;;;;;;4939420;28;213800;-70
2023/05/15 05:32:35;;;;;;;30.63;24.45;;;10.80;99.90;;;;;;4985984;28;20069;-69
2023/05/15 05:35:02;;;;;;;32.40;25.17;;;10.80;99.90;;;;;;4954594;28;211130;-69
2023/05/15 05:37:28;;;;;;;32.97;24.17;;;10.90;99.90;;;;;;4979727;28;20110;-68
2023/05/15 05:39:55;;;;;;;30.67;24.58;;;10.90;99.90;;;;;;4983564;28;206915;-70
2023/05/15 05:42:21;;;;;;;29.45;24.30;;;10.90;99.90;;;;;;5006789;28;20422;-69
2023/05/15 05:44:47;;;;;;;29.15;23.35;;;10.90;99.90;;;;;;4948911;28;209925;-70
2023/05/15 05:47:13;;;;;;;28.58;22.73;;;10.90;99.90;;;;;;4983932;28;20054;-69
2023/05/15 05:49:39;;;;;;;28.75;22.73;;;11.10;99.90;;;;;;4964391;28;212194;-69
2023/05/15 05:52:08;;;;;;;31.40;22.35;;;11.10;99.90;;;;;;5011760;28;20054;-69
2023/05/15 05:54:34;;;;;;;27.60;22.52;;;10.90;99.90;;;;;;4952245;28;217229;-69
2023/05/15 05:57:00;;;;;;;28.95;23.45;;;10.90;99.90;;;;;;4995249;28;20097;-69
2023/05/15 05:59:28;;;;;;;33.45;23.20;;;11.00;99.90;;;;;;4943388;28;210748;-69
2023/05/15 06:01:54;;;;;;;27.95;21.48;;;11.10;99.90;;;;;;4989652;28;20050;-69
2023/05/15 06:04:20;;;;;;;28.58;20.90;;;11.20;99.90;;;;;;4955520;28;208005;-70
2023/05/15 06:06:46;;;;;;;29.10;21.75;;;11.40;99.90;;;;;;4988931;28;20495;-70
2023/05/15 06:09:12;;;;;;;29.25;21.02;;;11.70;99.90;;;;;;4948725;28;207312;-70
2023/05/15 06:11:39;;;;;;;25.80;19.55;;;11.80;99.90;;;;;;5004559;28;20508;-69
2023/05/15 06:14:07;;;;;;;25.58;18.95;;;12.00;99.90;;;;;;4939433;28;213211;-69
2023/05/15 06:16:33;;;;;;;26.13;19.30;;;11.80;99.90;;;;;;4996210;28;20679;-69
2023/05/15 06:18:59;;;;;;;31.33;20.88;;;11.80;99.90;;;;;;4956160;28;210229;-70
2023/05/15 06:21:25;;;;;;;26.27;21.02;;;11.80;99.90;;;;;;5026987;28;20443;-69
2023/05/15 06:23:51;;;;;;;26.67;20.25;;;12.00;99.90;;;;;;4977152;28;208446;-69
2023/05/15 06:26:17;;;;;;;25.60;20.58;;;12.20;99.90;;;;;;5026290;28;20053;-70
2023/05/15 06:28:43;;;;;;;23.98;19.63;;;12.50;99.90;;;;;;4967791;28;208310;-69
2023/05/15 06:31:09;;;;;;;26.20;18.55;;;12.70;99.90;;;;;;5004244;28;20069;-70
2023/05/15 06:33:35;;;;;;;24.50;19.05;;;12.70;99.90;;;;;;4946433;28;165939;-69
2023/05/15 06:36:01;;;;;;;25.13;17.73;;;12.80;99.90;;;;;;5030480;28;20058;-69
2023/05/15 06:38:28;;;;;;;25.00;17.95;;;12.80;99.90;;;;;;4959706;28;207669;-69
2023/05/15 06:40:54;;;;;;;23.75;17.98;;;12.60;99.90;;;;;;5033263;28;20056;-71
2023/05/15 06:43:20;;;;;;;25.45;18.42;;;12.60;99.90;;;;;;4954354;28;215506;-69
2023/05/15 06:45:46;;;;;;;25.77;17.38;;;12.60;99.90;;;;;;5016588;28;20057;-70
2023/05/15 06:48:12;;;;;;;23.33;18.73;;;12.60;99.90;;;;;;4957337;28;207599;-69
2023/05/15 06:50:38;;;;;;;23.48;17.27;;;12.80;99.90;;;;;;5018345;28;20046;-69
2023/05/15 06:53:04;;;;;;;22.65;17.20;;;12.90;99.90;;;;;;4936435;28;212825;-70
2023/05/15 06:55:32;;;;;;;22.77;17.15;;;13.00;99.90;;;;;;5016901;28;20050;-69
2023/05/15 06:57:59;;;;;;;24.98;17.60;;;13.10;99.90;;;;;;4967131;28;218710;-69
2023/05/15 07:00:25;;;;;;;23.85;18.83;;;13.30;99.90;;;;;;4991551;28;194870;-70
2023/05/15 07:02:51;;;;;;;22.17;16.52;;;13.60;99.90;;;;;;4996527;28;20051;-70
2023/05/15 07:05:17;;;;;;;22.05;17.23;;;13.70;99.90;;;;;;4972424;28;209806;-70
2023/05/15 07:07:43;;;;;;;20.98;17.45;;;13.70;99.90;;;;;;4988940;28;20053;-70
2023/05/15 07:10:09;;;;;;;25.25;16.80;;;13.80;99.90;;;;;;4975697;28;207597;-69
2023/05/15 07:12:35;;;;;;;22.33;17.92;;;13.80;99.90;;;;;;5012737;28;20065;-70
2023/05/15 07:15:02;;;;;;;23.17;18.15;;;13.80;99.90;;;;;;4972104;28;205302;-70
2023/05/15 07:17:30;;;;;;;20.80;17.58;;;14.20;99.90;;;;;;4991366;28;20056;-71
2023/05/15 07:19:56;;;;;;;21.08;17.88;;;14.40;99.90;;;;;;4963558;28;207374;-70
2023/05/15 07:22:22;;;;;;;21.83;18.17;;;14.60;99.90;;;;;;4991263;28;20054;-70
2023/05/15 07:24:48;;;;;;;21.65;17.63;;;14.60;99.90;;;;;;4962022;28;204980;-70
2023/05/15 07:27:14;;;;;;;22.05;18.27;;;14.90;99.90;;;;;;5008408;28;20072;-68
2023/05/15 07:29:40;;;;;;;19.52;17.40;;;15.10;99.90;;;;;;4955534;28;212944;-69
2023/05/15 07:32:06;;;;;;;22.35;17.17;;;15.40;99.90;;;;;;4985857;28;20073;-69
2023/05/15 07:34:33;;;;;;;21.55;17.80;;;15.40;99.90;;;;;;4945714;28;206401;-70
2023/05/15 07:36:59;;;;;;;19.60;14.48;;;15.40;99.90;;;;;;5012577;28;20058;-69
2023/05/15 07:39:25;;;;;;;19.08;14.77;;;15.60;99.90;;;;;;4971737;28;207251;-69
2023/05/15 07:41:51;;;;;;;17.92;14.98;;;15.60;99.90;;;;;;4997161;28;20053;-69
2023/05/15 07:44:17;;;;;;;17.67;14.73;;;15.70;99.90;;;;;;4952608;28;221525;-70
2023/05/15 07:46:44;;;;;;;21.08;14.02;;;16.30;99.90;;;;;;4997504;28;20512;-70
2023/05/15 07:49:10;;;;;;;19.45;13.95;;;16.70;99.90;;;;;;4967182;28;206375;-70
2023/05/15 07:51:36;;;;;;;17.98;13.88;;;17.20;99.90;;;;;;4992228;28;20068;-69
2023/05/15 07:54:03;;;;;;;16.75;12.80;;;17.30;99.90;;;;;;4951454;28;207466;-69
2023/05/15 07:56:29;;;;;;;19.92;13.68;;;17.40;99.90;;;;;;5021592;28;20522;-68
2023/05/15 07:58:55;;;;;;;19.52;13.80;;;17.50;99.90;;;;;;4931560;28;247575;-68
2023/05/15 08:01:21;;;;;;;18.02;13.02;;;17.30;99.90;;;;;;4995439;28;20058;-69
2023/05/15 08:03:48;;;;;;;17.55;12.60;;;17.50;99.90;;;;;;4948855;28;207606;-70
2023/05/15 08:06:15;;;;;;;18.75;12.77;;;17.70;99.90;;;;;;5006147;28;20409;-69
2023/05/15 08:08:41;;;;;;;15.48;11.93;;;17.90;99.90;;;;;;4953730;28;209473;-69
2023/05/15 08:11:07;;;;;;;16.75;11.95;;;18.30;99.90;;;;;;5010959;28;20050;-69
2023/05/15 08:13:33;;;;;;;18.63;12.85;;;18.60;99.90;;;;;;4937050;28;209635;-69
2023/05/15 08:15:59;;;;;;;17.00;11.90;;;18.80;99.90;;;;;;5015697;28;20495;-70
2023/05/15 08:18:25;;;;;;;20.77;12.90;;;19.10;99.90;;;;;;4955293;28;207490;-68
2023/05/15 08:20:51;;;;;;;16.30;12.93;;;19.30;99.90;;;;;;5013985;28;20058;-68
2023/05/15 08:23:17;;;;;;;21.85;13.95;;;19.10;99.90;;;;;;4933616;28;208006;-69
2023/05/15 08:25:43;;;;;;;22.48;12.63;;;19.20;99.70;;;;;;5013962;28;20050;-68
2023/05/15 08:28:09;;;;;;;18.38;12.07;;;19.60;99.90;;;;;;4938178;28;211331;-68
2023/05/15 08:30:36;;;;;;;15.55;10.65;;;19.90;99.90;;;;;;5014024;28;20054;-69
2023/05/15 08:33:02;;;;;;;15.33;10.77;;;20.10;99.90;;;;;;4961310;28;210879;-69
2023/05/15 08:35:28;;;;;;;18.33;10.88;;;20.40;99.20;;;;;;5018464;28;20050;-69
2023/05/15 08:37:54;;;;;;;14.38;10.05;;;20.30;98.70;;;;;;5008104;28;20415;-69
2023/05/15 08:40:21;;;;;;;17.92;11.57;;;20.40;99.00;;;;;;4954713;28;254813;-69
2023/05/15 08:42:52;;;;;;;15.95;11.57;;;20.50;97.60;;;;;;5010838;28;20046;-70
2023/05/15 08:45:19;;;;;;;15.63;10.98;;;20.10;98.20;;;;;;4958401;28;211134;-69
2023/05/15 08:47:45;;;;;;;15.77;11.18;;;20.00;98.60;;;;;;4991143;28;20062;-70
2023/05/15 08:50:14;;;;;;;14.63;10.27;;;19.60;98.70;;;;;;4960026;28;207503;-69
2023/05/15 08:52:41;;;;;;;17.63;10.70;;;19.70;99.20;;;;;;4986932;28;20058;-70
2023/05/15 08:55:12;;;;;;;13.95;10.65;;;19.90;98.20;;;;;;4968089;28;207078;-71
2023/05/15 08:57:38;;;;;;;14.82;10.18;;;19.60;99.10;;;;;;5008200;28;20049;-70
2023/05/15 09:00:08;;;;;;;15.50;9.32;;;19.70;98.90;;;;;;4959278;28;210795;-68
2023/05/15 09:02:38;;;;;;;13.88;9.30;;;20.00;98.50;;;;;;5010288;28;20038;-69
2023/05/15 09:05:05;;;;;;;13.43;8.57;;;20.10;98.20;;;;;;4951168;28;212393;-68
2023/05/15 09:07:32;;;;;;;14.05;8.38;;;20.50;97.00;;;;;;4990521;28;20042;-69
2023/05/15 09:10:00;;;;;;;13.13;8.20;;;20.70;98.50;;;;;;4985804;28;207679;-70
2023/05/15 09:12:26;;;;;;;12.10;7.63;;;21.40;98.00;;;;;;5011835;28;20061;-71
2023/05/15 09:15:13;;;;;;;12.65;7.43;;;21.70;97.10;;;;;;4980531;28;207920;-69
2023/05/15 09:17:39;;;;;;;12.25;8.10;;;22.40;96.20;;;;;;4988719;28;20504;-68
2023/05/15 09:20:07;;;;;;;16.65;8.30;;;22.70;95.90;;;;;;4964317;28;207506;-71
2023/05/15 09:22:34;;;;;;;13.02;7.35;;;22.60;95.90;;;;;;4991680;28;20055;-70
2023/05/15 09:25:02;;;;;;;11.25;7.32;;;22.10;94.60;;;;;;4982570;28;209539;-68
2023/05/15 09:27:29;;;;;;;12.85;7.60;;;21.60;95.10;;;;;;4991840;28;20500;-69
2023/05/15 09:30:07;;;;;;;11.40;6.95;;;21.50;95.90;;;;;;4962415;28;207792;-69
2023/05/15 09:32:35;;;;;;;12.50;7.40;;;21.70;95.20;;;;;;4996720;28;20054;-70
2023/05/15 09:35:02;;;;;;;11.13;6.70;;;21.30;95.30;;;;;;4966848;28;206965;-70
2023/05/15 09:37:32;;;;;;;14.43;7.80;;;21.60;94.80;;;;;;5016934;28;20053;-69
2023/05/15 09:40:09;;;;;;;12.57;7.47;;;21.70;95.30;;;;;;4968563;28;208936;-71
2023/05/15 09:42:36;;;;;;;14.13;7.43;;;22.00;94.00;;;;;;4988620;28;20050;-69
2023/05/15 09:45:03;;;;;;;12.77;7.03;;;21.90;93.80;;;;;;4984995;28;210593;-70
2023/05/15 09:47:29;;;;;;;10.70;6.32;;;22.00;94.40;;;;;;4988830;28;20059;-69
2023/05/15 09:49:55;;;;;;;12.50;7.00;;;22.20;93.90;;;;;;4959555;28;206155;-68
2023/05/15 09:52:22;;;;;;;12.57;7.10;;;22.20;94.70;;;;;;4989571;28;20051;-69
2023/05/15 09:54:48;;;;;;;11.88;7.03;;;22.60;94.30;;;;;;4960353;28;206913;-69
2023/05/15 09:57:15;;;;;;;14.02;8.30;;;23.00;94.20;;;;;;4995934;28;20058;-68
2023/05/15 09:59:45;;;;;;;13.65;7.82;;;22.70;93.80;;;;;;4940898;28;225616;-68
2023/05/15 10:02:23;;;;;;;12.07;7.47;;;22.80;93.60;;;;;;4989853;28;20046;-68
2023/05/15 10:04:55;;;;;;;12.60;7.60;;;22.50;93.70;;;;;;4960612;28;207135;-71
2023/05/15 10:07:28;;;;;;;13.15;7.22;;;22.30;94.10;;;;;;4991697;28;20062;-69
2023/05/15 10:09:54;;;;;;;10.45;6.72;;;22.90;93.40;;;;;;4966471;28;205457;-68
2023/05/15 10:12:25;;;;;;;12.30;7.97;;;23.70;93.30;;;;;;4994029;28;20050;-69
2023/05/15 10:14:53;;;;;;;;;;;23.40;93.70;;;;;;4965230;28;206325;-68
2023/05/15 10:17:19;;;;;;;16.13;8.30;;;23.00;93.00;;;;;;4991552;28;19925;-68
2023/05/15 10:19:49;;;;;;;12.82;8.38;;;22.20;94.40;;;;;;4959869;28;209716;-68
2023/05/15 10:22:20;;;;;;;14.20;7.53;;;22.90;93.40;;;;;;4991610;28;20091;-68
2023/05/15 10:24:49;;;;;;;12.70;7.82;;;23.40;93.30;;;;;;4955838;28;209620;-69
2023/05/15 10:27:16;;;;;;;11.77;7.63;;;23.10;93.10;;;;;;4994818;28;20073;-70
2023/05/15 10:29:43;;;;;;;12.95;7.57;;;22.60;93.30;;;;;;4956002;28;213534;-68
2023/05/15 10:32:10;;;;;;;14.73;9.27;;;21.50;94.00;;;;;;4993203;28;20050;-70
2023/05/15 10:34:37;;;;;;;12.70;8.68;;;21.10;95.10;;;;;;4968289;28;208078;-69
2023/05/15 10:37:04;;;;;;;13.43;8.30;;;21.70;95.00;;;;;;5016136;28;20057;-70
2023/05/15 10:39:34;;;;;;;14.38;8.02;;;22.00;94.30;;;;;;4969617;28;207947;-71
2023/05/15 10:42:01;;;;;;;13.25;8.90;;;22.00;93.90;;;;;;4999096;28;20056;-69
2023/05/15 10:44:27;;;;;;;12.52;8.85;;;22.20;94.00;;;;;;4955020;28;210425;-69
2023/05/15 10:46:54;;;;;;;14.25;9.38;;;22.00;94.40;;;;;;4991530;28;20058;-69
2023/05/15 10:49:20;;;;;;;13.60;8.55;;;22.10;94.00;;;;;;4960256;28;209810;-69
2023/05/15 10:51:46;;;;;;;14.57;8.77;;;21.10;94.60;;;;;;5001430;28;20061;-69
2023/05/15 10:54:13;;;;;;;13.88;8.18;;;21.10;95.40;;;;;;4958298;28;209382;-69
2023/05/15 10:56:41;;;;;;;11.45;7.45;;;21.30;95.20;;;;;;5016639;28;20057;-70
2023/05/15 10:59:09;;;;;;;13.88;8.70;;;21.80;94.90;;;;;;4939876;28;213465;-69
2023/05/15 11:01:37;;;;;;;15.10;9.75;;;22.00;94.90;;;;;;4992566;28;20058;-69
2023/05/15 11:04:14;;;;;;;11.85;8.18;;;22.50;94.90;;;;;;4939662;28;207993;-71
2023/05/15 11:06:47;;;;;;;13.60;8.50;;;23.30;93.70;;;;;;4987762;28;20050;-69
2023/05/15 11:09:33;;;;;;;12.43;8.43;;;22.90;93.40;;;;;;4962119;28;209834;-69
2023/05/15 11:12:01;;;;;;;12.73;8.02;;;23.00;92.90;;;;;;5010456;28;20064;-69
2023/05/15 11:14:33;;;;;;;14.50;8.65;;;23.30;93.30;;;;;;4971448;28;207206;-69
2023/05/15 11:17:03;;;;;;;12.75;7.78;;;23.70;93.50;;;;;;5014205;28;20054;-73
2023/05/15 11:19:31;;;;;;;15.32;8.30;;;23.30;92.90;;;;;;4965328;28;210142;-70
2023/05/15 11:21:58;;;;;;;13.07;8.30;;;23.00;93.40;;;;;;4993231;28;20082;-71
2023/05/15 11:24:51;;;;;;;11.73;7.70;;;22.90;93.50;;;;;;4959076;28;208078;-69
2023/05/15 11:27:23;;;;;;;15.18;8.48;;;23.40;93.20;;;;;;4993685;28;20058;-69
2023/05/15 11:30:11;;;;;;;13.40;7.40;;;23.60;92.20;;;;;;4954709;28;209555;-69
2023/05/15 11:32:46;;;;;;;11.85;7.07;;;23.70;92.60;;;;;;4990768;28;20054;-69
2023/05/15 11:35:22;;;;;;;12.75;7.82;;;23.20;92.40;;;;;;4980260;28;209766;-70
2023/05/15 11:37:55;;;;;;;10.93;7.25;;;22.80;92.50;;;;;;4991059;28;20042;-69
2023/05/15 11:40:29;;;;;;;12.13;6.40;;;23.00;92.60;;;;;;4984716;28;207410;-69
2023/05/15 11:43:17;;;;;;;10.77;6.50;;;22.90;92.40;;;;;;5003494;28;208257;-69
2023/05/15 11:45:47;;;;;;;12.48;6.40;;;23.60;91.60;;;;;;4947145;28;206755;-70
2023/05/15 11:48:15;;;;;;;9.73;4.85;;;23.70;90.40;;;;;;4944323;28;210334;-70
2023/05/15 11:50:43;;;;;;;12.20;5.53;;;23.10;90.50;;;;;;5032861;28;20057;-70
2023/05/15 11:53:09;;;;;;;10.52;6.07;;;23.50;90.60;;;;;;4954437;28;210371;-69
2023/05/15 11:55:37;;;;;;;13.15;7.20;;;24.00;91.10;;;;;;5036041;28;20401;-70
2023/05/15 11:58:04;;;;;;;12.82;7.50;;;23.50;91.10;;;;;;4955120;28;207280;-69
2023/05/15 12:00:31;;;;;;;12.25;7.00;;;23.30;91.80;;;;;;5023545;28;85507;-69
2023/05/15 12:02:57;;;;;;;12.95;7.60;;;22.70;91.20;;;;;;4991555;28;207429;-70
2023/05/15 12:05:23;;;;;;;12.57;8.85;;;22.30;92.80;;;;;;4966312;28;208954;-69
2023/05/15 12:07:49;;;;;;;13.50;8.63;;;22.00;93.30;;;;;;5008210;28;20050;-69
2023/05/15 12:10:15;;;;;;;12.43;8.43;;;22.20;93.30;;;;;;4964525;28;210883;-68
2023/05/15 12:12:43;;;;;;;14.55;9.27;;;21.90;93.20;;;;;;5006579;28;20061;-68
2023/05/15 12:15:14;;;;;;;13.45;7.95;;;21.60;93.80;;;;;;4962256;28;206878;-69
2023/05/15 12:17:41;;;;;;;12.48;8.75;;;21.20;93.80;;;;;;5006695;28;20058;-68
2023/05/15 12:20:15;;;;;;;13.50;8.00;;;20.70;94.10;;;;;;4967641;28;207400;-68
2023/05/15 12:22:41;;;;;;;12.98;7.63;;;20.60;94.30;;;;;;4988151;28;20500;-69
2023/05/15 12:25:10;;;;;;;14.55;8.27;;;20.40;94.00;;;;;;4944642;28;207324;-68
2023/05/15 12:27:40;;;;;;;13.13;8.52;;;20.40;94.30;;;;;;4987245;28;20427;-68
2023/05/15 12:30:07;;;;;;;13.40;8.45;;;20.10;94.70;;;;;;4960619;28;207245;-69